Guilin, China

1:11 AM CST on December 05, 2016 (GMT +0800)
Liangjiang | | Change Station

Elev 545 ft 25.33 °N, 110.30 °E | Updated 11 minutes ago

Mist
Mist
55 °F
Feels Like 55 °F
N
0
Wind Variable Wind from North

Today
High -- | Low -- °F
--% Chance of Precip.
Yesterday
High -- | Low -- °F
Precip. -- in
Pressure 30.12 in
Visibility 3.1 miles
Clouds
Dew Point 54 °F
Humidity 94%
Rainfall 0.00 in
Snow Depth Not available.
7:10 AM 5:48 PM
Waxing Crescent, 24% visible
METAR ZGKL 041700Z 00000MPS 5000 BR NSC 13/12 Q1020 NOSIG
Pressure 30.12 in
Visibility 3.1 miles
Clouds
Dew Point 54 °F
Humidity 94%
Rainfall 0.00 in
Snow Depth Not available.
7:10 AM 5:48 PM
Waxing Crescent, 24% visible
METAR ZGKL 041700Z 00000MPS 5000 BR NSC 13/12 Q1020 NOSIG

10-Day Weather Forecast

No radar image for this location.
×

Almanac

Astronomy

Dec. 05, 2016 Rise Set
Actual Time
Civil Twilight
Nautical Twilight
Astronomical Twilight
Moon
Length of Visible Light
Length of Day
Tomorrow will be .
, % of the Moon is Illuminated

Today's Extremes

Country Highs Country Lows

Community

WunderPhotos

Upload Photos

1,955,630 photos uploaded!

WunderBlog® & News

Nearby

Air Quality

  Air Quality AQ Index Pollutant
Not available.

Snow Depth

Station Depth Elevation

Earthquake Activity

City Distance Mag. Time & Date
Minimum magnitude displayed is 2.5.

Coastal Water Temperatures

Place Temperature

Stations

Nearby Weather Stations

Station Location Temp. Windchill Dew Point Humidity Wind Precip. Elev Updated Type